createdAt,value
2018-06-01T00:02:05.162Z,23.00
2018-06-01T00:04:33.217Z,23.33
2018-06-01T00:07:01.300Z,24.33
2018-06-01T00:09:29.348Z,25.13
2018-06-01T00:11:57.382Z,23.87
2018-06-01T00:14:25.469Z,25.00
2018-06-01T00:16:53.514Z,24.03
2018-06-01T00:19:22.365Z,25.40
2018-06-01T00:21:50.439Z,24.90
2018-06-01T00:24:18.490Z,25.00
2018-06-01T00:26:46.556Z,25.80
2018-06-01T00:29:14.614Z,25.27
2018-06-01T00:31:42.681Z,24.30
2018-06-01T00:34:10.763Z,26.90
2018-06-01T00:36:38.849Z,27.57
2018-06-01T00:39:06.900Z,25.83
2018-06-01T00:41:34.961Z,25.30
2018-06-01T00:44:03.770Z,26.77
2018-06-01T00:46:31.843Z,26.90
2018-06-01T00:48:59.909Z,26.17
2018-06-01T00:51:27.964Z,24.73
2018-06-01T00:53:56.042Z,26.57
2018-06-01T00:56:24.091Z,26.53
2018-06-01T00:58:52.910Z,30.30
2018-06-01T01:01:20.995Z,25.97
2018-06-01T01:03:49.075Z,27.67
2018-06-01T01:06:18.006Z,28.80
2018-06-01T01:08:46.075Z,29.00
2018-06-01T01:11:14.121Z,28.00
2018-06-01T01:13:42.793Z,27.70
2018-06-01T01:16:10.870Z,27.60
2018-06-01T01:18:38.943Z,28.27
2018-06-01T01:21:06.994Z,28.57
2018-06-01T01:23:35.055Z,29.50
2018-06-01T01:26:03.117Z,31.20
2018-06-01T01:28:31.211Z,28.50
2018-06-01T01:30:59.283Z,27.07
2018-06-01T01:33:27.337Z,30.33
2018-06-01T01:35:55.414Z,28.20
2018-06-01T01:38:23.486Z,30.17
2018-06-01T01:40:58.457Z,30.17
2018-06-01T01:43:26.545Z,30.50
2018-06-01T01:45:54.634Z,30.40
2018-06-01T01:48:22.644Z,31.13
2018-06-01T01:50:50.702Z,32.00
2018-06-01T01:53:18.755Z,31.97
2018-06-01T01:55:47.659Z,30.63
2018-06-01T01:58:15.692Z,32.40
2018-06-01T02:00:43.732Z,33.93
2018-06-01T02:03:11.822Z,35.93
2018-06-01T02:05:39.881Z,36.07
2018-06-01T02:08:08.024Z,35.60
2018-06-01T02:10:36.048Z,33.00
2018-06-01T02:13:04.098Z,32.73
2018-06-01T02:15:32.162Z,32.53
2018-06-01T02:18:00.230Z,30.80
2018-06-01T02:20:28.298Z,32.43
2018-06-01T02:22:56.365Z,31.60
2018-06-01T02:25:24.437Z,31.07
2018-06-01T02:27:52.493Z,30.33
2018-06-01T02:30:21.123Z,30.83
2018-06-01T02:32:49.202Z,32.27
2018-06-01T02:35:17.262Z,30.37
2018-06-01T02:37:45.314Z,32.40
2018-06-01T02:40:13.368Z,32.17
2018-06-01T02:42:41.444Z,31.47
2018-06-01T02:45:09.503Z,31.70
2018-06-01T02:47:37.572Z,31.77
2018-06-01T02:50:05.619Z,32.03
2018-06-01T02:52:34.546Z,31.73
2018-06-01T02:55:02.592Z,32.00
2018-06-01T02:57:31.411Z,33.57
2018-06-01T02:59:59.513Z,34.07
2018-06-01T03:02:27.582Z,35.77
2018-06-01T03:04:55.638Z,36.93
2018-06-01T03:07:23.701Z,34.70
2018-06-01T03:09:51.757Z,35.83
2018-06-01T03:12:19.829Z,37.70
2018-06-01T03:14:47.905Z,39.87
2018-06-01T03:17:15.987Z,37.90
2018-06-01T03:19:44.055Z,37.70
2018-06-01T03:22:12.102Z,37.70
2018-06-01T03:24:40.939Z,37.30
2018-06-01T03:27:08.985Z,41.07
2018-06-01T03:29:37.084Z,37.73
2018-06-01T03:32:05.147Z,37.97
2018-06-01T03:34:33.205Z,35.03
2018-06-01T03:37:01.356Z,39.33
2018-06-01T03:39:29.365Z,37.00
2018-06-01T03:41:57.418Z,37.40
2018-06-01T03:44:25.492Z,36.90
2018-06-01T03:46:53.549Z,38.47
2018-06-01T03:49:21.627Z,37.80
2018-06-01T03:51:49.680Z,38.10
2018-06-01T03:54:18.580Z,38.33
2018-06-01T03:56:46.588Z,39.77
2018-06-01T03:59:14.669Z,40.47
2018-06-01T04:01:42.721Z,39.63
2018-06-01T04:04:10.867Z,37.27
2018-06-01T04:06:38.893Z,39.20
2018-06-01T04:09:06.966Z,38.30
2018-06-01T04:11:35.577Z,37.20
2018-06-01T04:14:04.468Z,38.23
2018-06-01T04:16:33.307Z,37.53
2018-06-01T04:19:01.367Z,38.20
2018-06-01T04:21:29.429Z,37.47
2018-06-01T04:23:57.477Z,38.53
2018-06-01T04:26:26.311Z,39.27
2018-06-01T04:28:54.370Z,39.20
2018-06-01T04:31:22.455Z,39.00
2018-06-01T04:33:50.497Z,38.57
2018-06-01T04:36:18.578Z,39.40
2018-06-01T04:38:46.647Z,39.13
2018-06-01T04:41:14.773Z,37.43
2018-06-01T04:43:42.840Z,38.30
2018-06-01T04:46:10.892Z,38.53
2018-06-01T04:48:38.982Z,39.77
2018-06-01T04:51:07.034Z,36.47
2018-06-01T04:53:35.166Z,40.40
2018-06-01T04:56:03.255Z,39.40
2018-06-01T04:58:31.237Z,40.50
2018-06-01T05:01:00.071Z,39.80
2018-06-01T05:03:28.100Z,41.30
2018-06-01T05:05:56.574Z,40.00
2018-06-01T05:08:24.648Z,39.77
2018-06-01T05:10:52.698Z,37.70
2018-06-01T05:13:21.568Z,39.77
2018-06-01T05:15:51.191Z,42.07
2018-06-01T05:18:19.196Z,42.73
2018-06-01T05:20:47.279Z,44.27
2018-06-01T05:23:15.349Z,41.50
2018-06-01T05:25:43.445Z,39.53
2018-06-01T05:28:11.477Z,41.30
2018-06-01T05:30:39.558Z,43.90
2018-06-01T05:33:07.616Z,38.87
2018-06-01T05:35:35.663Z,39.57
2018-06-01T05:38:03.771Z,36.37
2018-06-01T05:40:31.826Z,37.80
2018-06-01T05:42:59.883Z,36.40
2018-06-01T05:45:27.954Z,38.10
2018-06-01T05:47:56.045Z,37.90
2018-06-01T05:50:24.099Z,39.97
2018-06-01T05:52:52.205Z,37.90
2018-06-01T05:55:20.267Z,39.60
2018-06-01T05:57:48.385Z,38.57
2018-06-01T06:00:16.436Z,39.90
2018-06-01T06:02:44.532Z,38.10
2018-06-01T06:05:13.386Z,40.03
2018-06-01T06:07:41.465Z,40.47
2018-06-01T06:10:09.535Z,38.83
2018-06-01T06:12:37.579Z,38.50
2018-06-01T06:15:05.660Z,38.77
2018-06-01T06:17:33.731Z,40.53
2018-06-01T06:22:36.319Z,37.43
2018-06-01T06:25:04.401Z,38.90
2018-06-01T06:27:32.471Z,38.73
2018-06-01T06:30:00.511Z,37.90
2018-06-01T06:32:28.588Z,35.97
2018-06-01T06:34:56.719Z,35.90
2018-06-01T06:37:24.761Z,36.30
2018-06-01T06:39:52.823Z,39.33
2018-06-01T06:42:20.890Z,38.63
2018-06-01T06:44:48.974Z,41.17
2018-06-01T06:47:17.133Z,40.07
2018-06-01T06:49:45.302Z,38.33
2018-06-01T06:52:13.378Z,38.80
2018-06-01T06:54:41.461Z,39.73
2018-06-01T06:57:09.592Z,42.93
2018-06-01T06:59:37.655Z,38.30
2018-06-01T07:02:05.747Z,40.50
2018-06-01T07:04:33.831Z,44.80
2018-06-01T07:07:01.908Z,38.90
2018-06-01T07:09:29.966Z,43.33
2018-06-01T07:11:58.013Z,43.03
2018-06-01T07:14:26.865Z,40.63
2018-06-01T07:16:54.926Z,41.40
2018-06-01T07:19:23.059Z,42.50
2018-06-01T07:21:51.090Z,41.80
2018-06-01T07:24:19.152Z,43.73
2018-06-01T07:26:47.222Z,44.20
2018-06-01T07:29:15.289Z,42.50
2018-06-01T07:31:43.348Z,45.13
2018-06-01T07:34:11.457Z,42.80
2018-06-01T07:36:39.502Z,43.30
2018-06-01T07:39:07.600Z,41.80
2018-06-01T07:41:35.702Z,39.10
2018-06-01T07:44:04.595Z,38.80
2018-06-01T07:46:33.777Z,37.77
2018-06-01T07:49:02.271Z,41.07
2018-06-01T07:51:30.743Z,37.60
2018-06-01T07:53:59.564Z,38.20
2018-06-01T07:56:27.603Z,37.77
2018-06-01T07:58:56.440Z,38.27
2018-06-01T08:01:24.525Z,36.50
2018-06-01T08:03:52.620Z,38.27
2018-06-01T08:06:20.707Z,38.63
2018-06-01T08:08:49.542Z,38.43
2018-06-01T08:11:17.594Z,37.60
2018-06-01T08:13:45.682Z,37.80
2018-06-01T08:16:13.759Z,38.70
2018-06-01T08:18:41.812Z,37.27
2018-06-01T08:21:09.894Z,39.33
2018-06-01T08:23:37.973Z,40.03
2018-06-01T08:26:06.039Z,40.60
2018-06-01T08:31:09.750Z,41.80
2018-06-01T08:33:37.825Z,43.13
2018-06-01T08:36:05.930Z,38.93
2018-06-01T08:38:34.046Z,39.90
2018-06-01T08:41:03.704Z,41.60
2018-06-01T08:43:31.766Z,43.03
2018-06-01T08:45:59.884Z,41.53
2018-06-01T08:48:27.957Z,42.60
2018-06-01T08:50:57.512Z,41.97
2018-06-01T08:53:25.629Z,53.63
2018-06-01T08:55:53.662Z,39.93
2018-06-01T08:58:21.763Z,40.47
2018-06-01T09:00:49.847Z,40.43
2018-06-01T09:03:17.922Z,39.37
2018-06-01T09:05:45.970Z,38.40
2018-06-01T09:08:14.036Z,23.93
2018-06-01T09:10:42.114Z,18.80
2018-06-01T09:13:10.175Z,14.90
2018-06-01T09:15:38.238Z,14.13
2018-06-01T09:18:06.330Z,15.93
2018-06-01T09:20:34.378Z,14.30
2018-06-01T09:23:02.512Z,15.53
2018-06-01T09:25:30.531Z,17.40
2018-06-01T09:27:58.601Z,16.53
2018-06-01T09:30:26.671Z,16.60
2018-06-01T09:32:54.707Z,13.73
2018-06-01T09:35:22.873Z,16.37
2018-06-01T09:37:51.318Z,15.70
2018-06-01T09:40:20.393Z,16.83
2018-06-01T09:42:48.457Z,15.70
2018-06-01T09:45:16.593Z,22.60
2018-06-01T09:47:45.839Z,17.90
2018-06-01T09:50:14.662Z,17.27
2018-06-01T09:52:42.733Z,15.90
2018-06-01T09:55:10.812Z,15.53
2018-06-01T09:57:39.678Z,15.50
2018-06-01T10:00:07.716Z,16.73
2018-06-01T10:02:35.775Z,16.10
2018-06-01T10:05:03.838Z,17.70
2018-06-01T10:07:31.900Z,16.83
2018-06-01T10:10:05.722Z,17.93
2018-06-01T10:12:33.802Z,19.17
2018-06-01T10:15:01.875Z,17.33
2018-06-01T10:17:29.950Z,18.33
2018-06-01T10:19:58.011Z,18.07
2018-06-01T10:22:31.207Z,11.53
2018-06-01T10:25:00.157Z,10.40
2018-06-01T10:27:28.763Z,11.77
2018-06-01T10:55:01.724Z,14.30
2018-06-01T11:00:44.884Z,16.90
2018-06-01T11:03:43.729Z,18.40
2018-06-01T11:10:11.203Z,21.20
2018-06-01T11:15:39.282Z,21.93
2018-06-01T11:18:07.366Z,21.13
2018-06-01T11:20:35.443Z,21.60
2018-06-01T11:23:43.949Z,21.87
2018-06-01T11:26:27.918Z,24.87
2018-06-01T11:28:57.503Z,23.03
2018-06-01T11:31:25.614Z,24.47
2018-06-01T11:33:58.039Z,23.53
2018-06-01T11:36:28.957Z,25.10
2018-06-01T11:42:36.715Z,25.70
2018-06-01T11:45:26.567Z,26.20
2018-06-01T11:48:17.947Z,26.27
2018-06-01T12:08:08.573Z,17.03
2018-06-01T12:10:36.637Z,16.87
2018-06-01T12:13:10.568Z,15.67
2018-06-01T12:15:52.519Z,16.20
2018-06-01T12:25:24.763Z,17.50
2018-06-01T12:34:38.724Z,13.87
2018-06-01T12:37:16.861Z,14.40
2018-06-01T12:39:45.731Z,15.30
2018-06-01T12:42:45.088Z,14.73
